Dati Storici Stazione MacerataMeteo
 
Dati Giornalieri Maggio 22, 2018 UnitÓ:  Metrica    Inglese   Entrambe
« Precedente Giorno
Successivo Giorno »
Dati Giornalieri Dati Settimanali Dati Mensili Dati Annuali Personalizza
  Attuale: Massima: Minima: Media:
Temperatura: -7.7 °C -17.8 °C -8.6 °C -7.1 °C
Punto di Rugiada: -8.5 °C -17.8 °C -10.5 °C -9.3 °C
UmiditÓ: 91% Humidity% 67% 76%
Vento-VelocitÓ: 2.6km/h 0km/h 0km/h 7.1km/h
Vento-Raffica: 12.9km/h 0km/h - -
Vento-DirezioneEast - - SSE
Pressione: 34337.4 hPa 0 hPa 34246 hPa -
Precipitazioni: 109.22 mm      
Historical Graphs
 
 
Dati Riepilogativi per Maggio 22, 2018
Ora Temperatura Punto di Rugiada Pressione Vento-Direzione Vento-VelocitÓ Vento-Raffica UmiditÓ IntensitÓ Pioggia Caduta (Oraria) Radiazione Solare Condizioni
-17.8 °C -17.8 °C 0 hPa Calm     Humidity% 0 mm SolarRadiationWatts/m^2 W/m2 Conditions
00:06 -8.4 °C -10.2 °C 34246 hPa SSW 5.1 km/h 10.3 km/h 81% 7.62 mm 0.00 W/m2
00:16 -8.4 °C -10.3 °C 34246 hPa SSW 7.7 km/h 15.6 km/h 80% 7.62 mm 0.00 W/m2
00:26 -8.2 °C -10.4 °C 34246 hPa SSW 10.3 km/h 20.8 km/h 78% 7.62 mm 0.00 W/m2
00:36 -8 °C -10.4 °C 34246 hPa SSW 7.7 km/h 20.8 km/h 76% 7.62 mm 0.00 W/m2
00:46 -8.1 °C -10.4 °C 34246 hPa SSW 5.1 km/h 20.8 km/h 76% 7.62 mm 0.00 W/m2
00:56 -8.1 °C -10.5 °C 34246 hPa SSW 5.1 km/h 10.3 km/h 76% 7.62 mm 0.00 W/m2
01:06 -8.2 °C -10.5 °C 34246 hPa SSW 7.7 km/h 12.9 km/h 76% 7.62 mm 0.00 W/m2
01:16 -8.2 °C -10.4 °C 34246 hPa SSW 7.7 km/h 12.9 km/h 77% 7.62 mm 0.00 W/m2
01:26 -8.2 °C -10.4 °C 34246 hPa SW 15.6 km/h 18.2 km/h 78% 0 mm 0.00 W/m2
01:36 -8.3 °C -10.4 °C 34246 hPa SW 7.7 km/h 23.3 km/h 79% 0 mm 0.00 W/m2
01:46 -8.4 °C -10.4 °C 34246 hPa WSW 10.3 km/h 23.3 km/h 79% 0 mm 0.00 W/m2
01:56 -8.4 °C -10.4 °C 34246 hPa WSW 7.7 km/h 10.3 km/h 79% 0 mm 0.00 W/m2
02:06 -8.4 °C -10.4 °C 34246 hPa SW 10.3 km/h 15.6 km/h 79% 0 mm 0.00 W/m2
02:16 -8.4 °C -10.3 °C 34246 hPa WSW 15.6 km/h 15.6 km/h 81% 0 mm 0.00 W/m2
02:26 -8.6 °C -10.3 °C 34246 hPa WSW 7.7 km/h 15.6 km/h 82% 0 mm 0.00 W/m2
02:36 -8.6 °C -10.3 °C 34246 hPa WSW 5.1 km/h 15.6 km/h 82% 0 mm 0.00 W/m2
02:46 -8.6 °C -10.3 °C 34246 hPa SW 7.7 km/h 18.2 km/h 82% 0 mm 0.00 W/m2
02:56 -8.6 °C -10.3 °C 34246 hPa SW 5.1 km/h 18.2 km/h 82% 0 mm 0.00 W/m2
03:06 -8.6 °C -10.2 °C 34246 hPa WSW 7.7 km/h 18.2 km/h 83% 0 mm 0.00 W/m2
03:16 -8.6 °C -10.1 °C 34246 hPa WSW 2.6 km/h 18.2 km/h 84% 0 mm 0.00 W/m2
03:26 -8.6 °C -10.2 °C 34246 hPa WSW 10.3 km/h 12.9 km/h 83% 0 mm 0.00 W/m2
03:36 -8.5 °C -10.1 °C 34246 hPa WSW 7.7 km/h 18.2 km/h 83% 0 mm 0.00 W/m2
03:46 -8.5 °C -10.1 °C 34246 hPa WSW 7.7 km/h 18.2 km/h 83% 0 mm 0.00 W/m2
03:56 -8.4 °C -10.2 °C 34246 hPa WSW 2.6 km/h 7.7 km/h 82% 0 mm 0.00 W/m2
04:06 -8.4 °C -10.2 °C 34246 hPa WSW 5.1 km/h 7.7 km/h 81% 0 mm 0.00 W/m2
04:16 -8.3 °C -10.1 °C 34246 hPa Calm   7.7 km/h 81% 0 mm 0.00 W/m2
04:26 -8.3 °C -10.2 °C 34246 hPa WSW 10.3 km/h 10.3 km/h 80% 0 mm 0.00 W/m2
04:36 -8.3 °C -10.2 °C 34246 hPa WSW 10.3 km/h 10.3 km/h 80% 0 mm 0.00 W/m2
04:47 -8.3 °C -10.2 °C 34246 hPa WSW 10.3 km/h 10.3 km/h 80% 0 mm 0.00 W/m2
04:57 -8.3 °C -10.2 °C 34246 hPa WSW 2.6 km/h 7.7 km/h 80% 0 mm 0.00 W/m2
05:07 -8.4 °C -10.2 °C 34246 hPa WSW 2.6 km/h 7.7 km/h 81% 0 mm 0.00 W/m2
05:17 -8.4 °C -10.2 °C 34246 hPa Calm   7.7 km/h 81% 0 mm 0.00 W/m2
05:27 -8.3 °C -10.2 °C 34246 hPa WSW 5.1 km/h 7.7 km/h 80% 0 mm 0.00 W/m2
05:37 -8.2 °C -10.2 °C 34246 hPa WSW 5.1 km/h 7.7 km/h 79% 0 mm 0.00 W/m2
05:47 -8.2 °C -10.2 °C 34256.2 hPa Calm   10.3 km/h 79% 0 mm 9.00 W/m2
05:57 -8.3 °C -10.3 °C 34256.2 hPa WSW 2.6 km/h 7.7 km/h 79% 0 mm 16.00 W/m2
06:07 -8.3 °C -10.2 °C 34256.2 hPa WSW 5.1 km/h 10.3 km/h 80% 0 mm 33.00 W/m2
06:17 -8.2 °C -10.2 °C 34256.2 hPa WSW 2.6 km/h 10.3 km/h 79% 0 mm 77.00 W/m2
06:27 -8.1 °C -10.1 °C 34256.2 hPa WSW 2.6 km/h 5.1 km/h 79% 0 mm 86.00 W/m2
06:37 -7.9 °C -10.1 °C 34256.2 hPa WSW 5.1 km/h 7.7 km/h 78% 0 mm 91.00 W/m2
06:47 -7.9 °C -10.1 °C 34269.7 hPa Calm   7.7 km/h 78% 0 mm 109.00 W/m2
06:57 -7.8 °C -9.9 °C 34269.7 hPa Calm     78% 0 mm 123.00 W/m2
07:07 -7.7 °C -9.9 °C 34256.2 hPa Calm     77% 0 mm 146.00 W/m2
07:17 -7.4 °C -9.7 °C 34256.2 hPa Calm   5.1 km/h 77% 0 mm 158.00 W/m2
07:27 -6.8 °C -9.2 °C 34269.7 hPa SSW 2.6 km/h 2.6 km/h 76% 0 mm 183.00 W/m2
07:37 -6.8 °C -9.3 °C 34269.7 hPa South 2.6 km/h 5.1 km/h 75% 0 mm 257.00 W/m2
07:47 -6.7 °C -9.3 °C 34279.9 hPa Calm   5.1 km/h 74% 0 mm 264.00 W/m2
07:57 -6.6 °C -9.1 °C 34279.9 hPa South 2.6 km/h 5.1 km/h 75% 0 mm 269.00 W/m2
08:07 -6.5 °C -8.8 °C 34293.4 hPa Calm   5.1 km/h 77% 0 mm 325.00 W/m2
08:17 -6.4 °C -8.8 °C 34293.4 hPa Calm   5.1 km/h 77% 0 mm 367.00 W/m2
08:27 -6.7 °C -9.1 °C 34293.4 hPa Calm   7.7 km/h 76% 0 mm 452.00 W/m2
08:37 -6.7 °C -9.1 °C 34303.6 hPa Calm   10.3 km/h 76% 0 mm 497.00 W/m2
08:47 -6.7 °C -9 °C 34303.6 hPa NW 5.1 km/h 10.3 km/h 77% 0 mm 483.00 W/m2
08:57 -6.6 °C -9.2 °C 34303.6 hPa NNE 5.1 km/h 10.3 km/h 74% 0 mm 499.00 W/m2
09:07 -6.4 °C -9.3 °C 34303.6 hPa NNE 5.1 km/h 10.3 km/h 72% 0 mm 534.00 W/m2
09:17 -6.4 °C -9.2 °C 34313.7 hPa ENE 15.6 km/h 18.2 km/h 73% 0 mm 580.00 W/m2
09:27 -6.4 °C -9.1 °C 34313.7 hPa ENE 5.1 km/h 18.2 km/h 74% 0 mm 552.00 W/m2
09:37 -6.3 °C -9 °C 34313.7 hPa ENE 7.7 km/h 18.2 km/h 74% 0 mm 589.00 W/m2
09:47 -6.5 °C -9.1 °C 34313.7 hPa ENE 7.7 km/h 18.2 km/h 74% 0 mm 626.00 W/m2
09:57 -6.1 °C -8.9 °C 34313.7 hPa ENE 5.1 km/h 18.2 km/h 73% 0 mm 686.00 W/m2
10:07 -6.5 °C -9.1 °C 34313.7 hPa Calm   18.2 km/h 74% 0 mm 747.00 W/m2
10:17 -6.4 °C -8.9 °C 34313.7 hPa NE 2.6 km/h 18.2 km/h 75% 0 mm 548.00 W/m2
10:27 -6.3 °C -8.9 °C 34313.7 hPa Calm   18.2 km/h 75% 0 mm 882.00 W/m2
10:37 -6.2 °C -9 °C 34313.7 hPa North 2.6 km/h 20.8 km/h 73% 0 mm 503.00 W/m2
10:47 -6 °C -8.9 °C 34313.7 hPa NNE 2.6 km/h 20.8 km/h 72% 0 mm 765.00 W/m2
10:57 -5.9 °C -8.7 °C 34313.7 hPa Calm   18.2 km/h 73% 0 mm 591.00 W/m2
11:07 -5.8 °C -8.8 °C 34313.7 hPa East 2.6 km/h 18.2 km/h 71% 0 mm 675.00 W/m2
11:17 -5.9 °C -9.1 °C 34313.7 hPa East 7.7 km/h 18.2 km/h 69% 0 mm 821.00 W/m2
11:27 -5.8 °C -8.7 °C 34313.7 hPa East 2.6 km/h 18.2 km/h 72% 0 mm 429.00 W/m2
11:37 -5.7 °C -8.6 °C 34313.7 hPa ENE 15.6 km/h 20.8 km/h 72% 0 mm 1041.00 W/m2
11:47 -5.5 °C -8.6 °C 34313.7 hPa NE 12.9 km/h 20.8 km/h 71% 0 mm 316.00 W/m2
11:57 -5.6 °C -8.4 °C 34313.7 hPa ENE 5.1 km/h 18.2 km/h 73% 0 mm 241.00 W/m2
12:07 -5.9 °C -8.7 °C 34313.7 hPa ENE 12.9 km/h 20.8 km/h 74% 0 mm 362.00 W/m2
12:17 -5.7 °C -8.3 °C 34313.7 hPa East 12.9 km/h 20.8 km/h 74% 0 mm 371.00 W/m2
12:27 -5.7 °C -8.4 °C 34313.7 hPa NNE 10.3 km/h 23.3 km/h 73% 0 mm 371.00 W/m2
12:37 -5.4 °C -8.4 °C 34313.7 hPa NE 10.3 km/h 23.3 km/h 72% 0 mm 872.00 W/m2
12:47 -5.4 °C -8.2 °C 34303.6 hPa ENE 18.2 km/h 25.9 km/h 73% 0 mm 684.00 W/m2
12:57 -5.4 °C -8.3 °C 34313.7 hPa ENE 7.7 km/h 28.5 km/h 72% 0 mm 956.00 W/m2
13:07 -5.1 °C -8.2 °C 34313.7 hPa East 20.8 km/h 28.5 km/h 71% 0 mm 1037.00 W/m2
13:17 -5.3 °C -8.5 °C 34313.7 hPa NNE 18.2 km/h 36.2 km/h 70% 0 mm 1013.00 W/m2
13:27 -5.3 °C -8.4 °C 34313.7 hPa East 20.8 km/h 33.6 km/h 71% 0 mm 1051.00 W/m2
13:37 -5.4 °C -8.2 °C 34303.6 hPa ESE 15.6 km/h 36.2 km/h 73% 0 mm 529.00 W/m2
13:47 -5.7 °C -8.4 °C 34303.6 hPa NE 20.8 km/h 36.2 km/h 74% 0 mm 330.00 W/m2
13:58 -6 °C -8.4 °C 34313.7 hPa ENE 25.9 km/h 38.8 km/h 76% 0 mm 401.00 W/m2
14:08 -5.9 °C -8.6 °C 34313.7 hPa SE 7.7 km/h 38.8 km/h 74% 0 mm 476.00 W/m2
14:17 -5.6 °C -8.9 °C 34303.6 hPa East 20.8 km/h 38.8 km/h 69% 0 mm 710.00 W/m2
14:28 -5.6 °C -8.8 °C 34303.6 hPa East 5.1 km/h 41.4 km/h 69% 0 mm 345.00 W/m2
14:38 -5.2 °C -8.6 °C 34303.6 hPa East 25.9 km/h 41.4 km/h 69% 0 mm 849.00 W/m2
14:47 -5.4 °C -8.8 °C 34303.6 hPa East 23.3 km/h 41.4 km/h 69% 0 mm 860.00 W/m2
14:58 -5.3 °C -8.4 °C 34313.7 hPa NNE 7.7 km/h 25.9 km/h 70% 0 mm 990.00 W/m2
15:08 -5.4 °C -8.8 °C 34313.7 hPa NE 20.8 km/h 31.1 km/h 68% 0 mm 522.00 W/m2
15:17 -5.5 °C -9.1 °C 34313.7 hPa NE 2.6 km/h 31.1 km/h 67% 0 mm 960.00 W/m2
15:28 -5.2 °C -8.7 °C 34313.7 hPa East 7.7 km/h 25.9 km/h 68% 0 mm 468.00 W/m2
15:38 -5.3 °C -8.9 °C 34303.6 hPa NE 10.3 km/h 31.1 km/h 67% 0 mm 202.00 W/m2
15:47 -5.5 °C -9.1 °C 34303.6 hPa NE 5.1 km/h 31.1 km/h 67% 0 mm 165.00 W/m2
15:58 -5.4 °C -8.8 °C 34303.6 hPa ENE 5.1 km/h 25.9 km/h 69% 0 mm 160.00 W/m2
16:08 -5.7 °C -8.9 °C 34303.6 hPa Calm   25.9 km/h 69% 0 mm 58.00 W/m2
16:17 -5.9 °C -8.8 °C 34313.7 hPa ESE 5.1 km/h 25.9 km/h 72% 0 mm 74.00 W/m2
16:28 -6.3 °C -8.4 °C 34303.6 hPa ESE 5.1 km/h 12.9 km/h 79% 33.02 mm 250.00 W/m2
16:38 -6.6 °C -8.4 °C 34293.4 hPa East 2.6 km/h 12.9 km/h 81% 38.1 mm 255.00 W/m2
16:47 -6.6 °C -8.4 °C 34293.4 hPa Calm   12.9 km/h 82% 38.1 mm 211.00 W/m2
16:58 -6.7 °C -8.4 °C 34303.6 hPa East 5.1 km/h 10.3 km/h 82% 38.1 mm 153.00 W/m2
17:08 -6.6 °C -8.2 °C 34303.6 hPa Calm   10.3 km/h 83% 38.1 mm 120.00 W/m2
17:17 -6.7 °C -8.4 °C 34293.4 hPa East 7.7 km/h 18.2 km/h 83% 38.1 mm 97.00 W/m2
17:28 -6.6 °C -8.2 °C 34303.6 hPa ESE 12.9 km/h 18.2 km/h 84% 38.1 mm 102.00 W/m2
17:38 -6.7 °C -8.3 °C 34313.7 hPa East 5.1 km/h 18.2 km/h 83% 38.1 mm 42.00 W/m2
17:47 -6.7 °C -8.2 °C 34303.6 hPa East 2.6 km/h 18.2 km/h 85% 38.1 mm 26.00 W/m2
17:58 -6.8 °C -8.1 °C 34313.7 hPa Calm   10.3 km/h 86% 0 mm 19.00 W/m2
18:08 -6.8 °C -8 °C 34313.7 hPa Calm   10.3 km/h 87% 0 mm 11.00 W/m2
18:17 -7 °C -8.2 °C 34327.3 hPa WSW 10.3 km/h 12.9 km/h 87% 12.7 mm 16.00 W/m2
18:28 -7.3 °C -8.3 °C 34337.4 hPa SW 18.2 km/h 25.9 km/h 89% 33.02 mm 16.00 W/m2
18:38 -7.6 °C -8.4 °C 34337.4 hPa SW 23.3 km/h 28.5 km/h 90% 38.1 mm 9.00 W/m2
18:47 -7.8 °C -8.7 °C 34337.4 hPa SSW 10.3 km/h 28.5 km/h 90% 50.8 mm 9.00 W/m2
18:58 -7.9 °C -8.7 °C 34337.4 hPa Calm   12.9 km/h 91% 63.5 mm 14.00 W/m2
19:08 -7.7 °C -8.5 °C 34337.4 hPa East 2.6 km/h 12.9 km/h 91% 63.5 mm 9.00 W/m2
MacerataMeteo
Maceratameteo.it Weather Underground - 2 mb